Keams Canyon, AZ

2:47 PM MDT on September 21, 2014 (GMT -0600)
Winslow-Lindbergh Regional | Change Station
CLOSE
Current Station
Airport
Location: Winslow,
Elevation: 4882 ft
Nearby Weather Stations
Active Advisory: Severe Thunderstorm Warning Active Notice: Record Report

Elev 4882 ft 35.03 °N, 110.72 °W | Updated 51 minutes ago

Partly Cloudy
Partly Cloudy
82 °F
Feels Like 81 °F
N
8
Wind Variable Wind from ESE

Today
High -- | Low -- °F
--% Chance of Precip.
Yesterday
High -- | Low -- °F
Precip. -- in
7:07 AM 7:18 PM
Waning Crescent, 5% visible
Pressure 29.91 in
Visibility 10.0 miles
Clouds Few 9000 ft
Heat Index 81 °F
Dew Point 55 °F
Humidity 39%
Rainfall 0.00 in
Snow Depth 1 in , 0 in , 0 in
UV 9 out of 12
Pollen 5.40 out of 12
Air Quality Not available.
Flu Activity Not available.
METAR KINW 211956Z AUTO 11007KT 10SM FEW090 28/13 A3014 RMK AO2 SLP129 T02780128

More Conditions Fewer Conditions

Pressure 29.91 in
Visibility 10.0 miles
Clouds Few 9000 ft
Heat Index 81 °F
Dew Point 55 °F
Humidity 39%
Rainfall 0.00 in
Snow Depth 1 in , 0 in , 0 in
UV 9 out of 12
Pollen 5.40 out of 12
Air Quality Not available.
Flu Activity Not available.
METAR KINW 211956Z AUTO 11007KT 10SM FEW090 28/13 A3014 RMK AO2 SLP129 T02780128

More Conditions Fewer Conditions

10-Day Weather Forecast

Almanac

Astronomy

Sep. 21, 2014 Rise Set
Actual Time 7:07 AM MDT 7:18 PM MDT
Civil Twilight 6:42 AM MDT 7:44 PM MDT
Nautical Twilight 6:12 AM MDT 8:14 PM MDT
Astronomical Twilight 5:42 AM MDT 8:44 PM MDT
Moon 4:48 AM MDT 5:54 PM MDT
Length of Visible Light 13h 01m
Length of Day
12h 10m
Tomorrow will be 2m 14s shorter.
Waning Crescent, 5% of the Moon is Illuminated
Today
Waning Crescent
Sep 24
New
Oct 1
First Quarter
Oct 8
Full
Oct 15
Last Quarter

Today's Extremes

State Highs State Lows

Community

WunderPhotos

Upload Photos

1,755,250 photos uploaded!

Nearby

Snow Depth

Station Depth Elevation
Workman Creek 1 in 6900 ft
Snowslide Canyon 0 in 9730 ft
Beaver Head 0 in 7990 ft

Earthquake Activity

City Distance Mag. Time & Date
No recent earthquake activity has been reported nearby.
Minimum magnitude displayed is 2.5.

Coastal Water Temperatures

Place Temperature
No Stations Reporting

Nearby Weather Stations